createdAt,value
2016-04-20T08:27:17.313Z,1744
2016-04-20T08:28:19.831Z,1900
2016-04-20T08:29:19.990Z,2248
2016-04-20T08:30:20.118Z,2284
2016-04-20T08:31:19.886Z,2088
2016-04-20T08:32:19.888Z,1776
2016-04-20T08:33:20.422Z,1400
2016-04-20T08:34:21.191Z,1232
2016-04-20T08:35:20.006Z,1600
2016-04-20T08:36:19.977Z,2192
2016-04-20T08:37:19.996Z,2252
2016-04-20T08:38:20.014Z,1808
2016-04-20T08:39:19.907Z,1332
2016-04-20T08:40:20.082Z,1144
2016-04-20T08:41:20.085Z,1156
2016-04-20T08:42:20.118Z,1724
2016-04-20T08:43:20.590Z,1412
2016-04-20T08:44:20.140Z,792
2016-04-20T08:45:20.174Z,552
2016-04-20T08:46:20.192Z,576
2016-04-20T08:47:20.210Z,608
2016-04-20T08:48:20.229Z,728
2016-04-20T08:49:20.310Z,1004
2016-04-20T08:50:20.281Z,1552
2016-04-20T08:51:20.268Z,2168
2016-04-20T08:52:20.302Z,2120
2016-04-20T08:53:20.336Z,2020
2016-04-20T08:54:19.917Z,1992
2016-04-20T08:55:20.216Z,2700
2016-04-20T08:56:20.406Z,2472
2016-04-20T08:57:20.393Z,2248
2016-04-20T08:58:20.428Z,2032
2016-04-20T08:59:20.305Z,1732
2016-04-20T09:00:20.464Z,1372
2016-04-20T09:01:20.483Z,1164
2016-04-20T09:02:20.516Z,1132
2016-04-20T09:03:20.519Z,1180
2016-04-20T09:04:20.552Z,1476
2016-04-20T09:05:20.571Z,1856
2016-04-20T09:06:20.698Z,1916
2016-04-20T09:07:20.780Z,1612
2016-04-20T09:08:20.626Z,1524
2016-04-20T09:09:20.660Z,1908
2016-04-20T09:10:20.757Z,2112
2016-04-20T09:11:20.869Z,1992
2016-04-20T09:12:20.809Z,1508
2016-04-20T09:13:20.796Z,1568
2016-04-20T09:14:20.862Z,2272
2016-04-20T09:15:20.864Z,2512
2016-04-20T09:16:20.882Z,2604
2016-04-20T09:17:20.884Z,2112
2016-04-20T09:18:20.668Z,2304
2016-04-20T09:19:20.890Z,2552
2016-04-20T09:20:20.909Z,2848
2016-04-20T09:21:20.911Z,2724
2016-04-20T09:22:20.991Z,2528
2016-04-20T09:23:20.931Z,2616
2016-04-20T09:24:20.966Z,2440
2016-04-20T09:25:20.968Z,1964
2016-04-20T09:26:21.002Z,1232
2016-04-20T09:27:21.098Z,1032
2016-04-20T09:28:21.038Z,1528
2016-04-20T09:29:21.119Z,2208
2016-04-20T09:30:21.091Z,2864
2016-04-20T09:31:21.140Z,2580
2016-04-20T09:32:21.127Z,2804
2016-04-20T09:33:21.239Z,2820
2016-04-20T09:34:21.164Z,2640
2016-04-20T09:35:21.182Z,2556
2016-04-20T09:36:21.309Z,2380
2016-04-20T09:37:21.234Z,2352
2016-04-20T09:38:21.236Z,2940
2016-04-20T09:39:21.271Z,3032
2016-04-20T09:40:21.289Z,2776
2016-04-20T09:41:21.323Z,2700
2016-04-20T09:42:21.451Z,2588
2016-04-20T09:43:21.453Z,2536
2016-04-20T09:44:21.378Z,2424
2016-04-20T09:45:21.489Z,2552
2016-04-20T09:46:21.414Z,2688
2016-04-20T09:47:21.605Z,2780
2016-04-20T09:48:21.452Z,2688
2016-04-20T09:49:21.470Z,2392
2016-04-20T09:50:21.503Z,2324
2016-04-20T09:51:21.522Z,2024
2016-04-20T09:52:21.540Z,1988
2016-04-20T09:53:21.558Z,2492
2016-04-20T09:54:21.577Z,2948
2016-04-20T09:55:21.596Z,3080
2016-04-20T09:56:21.488Z,3164
2016-04-20T09:57:21.663Z,2588
2016-04-20T09:58:21.666Z,2500
2016-04-20T09:59:21.684Z,2612
2016-04-20T10:00:21.702Z,2648
2016-04-20T10:01:21.736Z,2620
2016-04-20T10:02:21.754Z,2492
2016-04-20T10:03:21.773Z,2420
2016-04-20T10:04:21.806Z,2420
2016-04-20T10:05:21.825Z,2748
2016-04-20T10:06:21.828Z,2836
2016-04-20T10:07:21.877Z,2748
2016-04-20T10:08:21.926Z,2748
2016-04-20T10:09:21.945Z,3080
2016-04-20T10:10:21.932Z,2904
2016-04-20T10:11:21.967Z,2760
2016-04-20T10:12:21.969Z,2648
2016-04-20T10:13:22.003Z,2468
2016-04-20T10:14:22.100Z,2692
2016-04-20T10:15:22.040Z,2632
2016-04-20T10:16:22.105Z,2196
2016-04-20T10:17:22.076Z,2280
2016-04-20T10:18:22.126Z,2356
2016-04-20T10:19:22.144Z,2460
2016-04-20T10:20:22.147Z,3512
2016-04-20T10:21:22.166Z,3640
2016-04-20T10:22:22.183Z,3004
2016-04-20T10:23:22.217Z,2816
2016-04-20T10:24:22.236Z,2480
2016-04-20T10:25:22.254Z,2072
2016-04-20T10:26:22.272Z,1920
2016-04-20T10:27:22.306Z,1952
2016-04-20T10:28:22.324Z,2048
2016-04-20T10:29:22.358Z,2076
2016-04-20T10:30:22.393Z,1948
2016-04-20T10:31:22.410Z,2164
2016-04-20T10:32:22.445Z,1984
2016-04-20T10:33:22.416Z,1932
2016-04-20T10:34:22.451Z,1804
2016-04-20T10:35:22.610Z,1576
2016-04-20T10:36:22.502Z,1416
2016-04-20T10:37:22.520Z,1216
2016-04-20T10:38:22.539Z,1024
2016-04-20T10:39:22.573Z,1920
2016-04-20T10:40:22.591Z,2360
2016-04-20T10:41:22.720Z,3112
2016-04-20T10:42:22.737Z,3964
2016-04-20T10:43:22.740Z,4048
2016-04-20T10:44:22.680Z,3556
2016-04-20T10:45:22.808Z,3092
2016-04-20T10:46:22.826Z,2656
2016-04-20T10:47:22.736Z,2456
2016-04-20T10:48:22.878Z,2508
2016-04-20T10:49:22.787Z,2520
2016-04-20T10:50:22.852Z,2420
2016-04-20T10:51:22.824Z,2212
2016-04-20T10:52:22.858Z,1996
2016-04-20T10:53:22.891Z,1960
2016-04-20T10:54:22.894Z,2124
2016-04-20T10:55:22.913Z,2316
2016-04-20T10:56:22.947Z,2644
2016-04-20T10:57:22.965Z,2656
2016-04-20T10:58:22.983Z,2408
2016-04-20T10:59:23.017Z,2556
2016-04-20T11:00:23.020Z,2232
2016-04-20T11:01:23.085Z,2120
2016-04-20T11:02:23.072Z,2288
2016-04-20T11:03:23.107Z,2352
2016-04-20T11:04:23.140Z,2264
2016-04-20T11:05:23.034Z,2516
2016-04-20T11:06:23.176Z,2876
2016-04-20T11:07:23.195Z,2852
2016-04-20T11:08:23.213Z,2528
2016-04-20T11:09:23.248Z,2340
2016-04-20T11:10:23.375Z,1660
2016-04-20T11:11:23.409Z,2348
2016-04-20T11:12:23.412Z,2468
2016-04-20T11:13:23.337Z,2480
2016-04-20T11:14:23.464Z,2256
2016-04-20T11:15:22.764Z,2404
2016-04-20T11:16:22.656Z,3004
2016-04-20T11:17:23.503Z,3160
2016-04-20T11:18:23.444Z,1960
2016-04-20T11:19:23.462Z,1748
2016-04-20T11:20:23.512Z,1620
2016-04-20T11:21:23.514Z,1500
2016-04-20T11:22:23.673Z,1284
2016-04-20T11:23:23.519Z,1092
2016-04-20T11:24:23.678Z,1296
2016-04-20T11:25:23.603Z,1752
2016-04-20T11:26:23.746Z,3200
2016-04-20T11:27:23.655Z,3256
2016-04-20T11:28:23.688Z,2200
2016-04-20T11:29:23.691Z,1888
2016-04-20T11:30:23.038Z,1952
2016-04-20T11:31:23.822Z,1712
2016-04-20T11:32:23.857Z,2304
2016-04-20T11:33:23.797Z,3356
2016-04-20T11:34:23.893Z,2896
2016-04-20T11:35:23.833Z,3032
2016-04-20T11:36:23.882Z,2516
2016-04-20T11:37:23.916Z,2720
2016-04-20T11:38:23.919Z,2672
2016-04-20T11:39:23.922Z,2912
2016-04-20T11:40:23.971Z,3176
2016-04-20T11:41:23.974Z,3276
2016-04-20T11:42:23.992Z,2820
2016-04-20T11:43:24.026Z,2176
2016-04-20T11:44:24.044Z,2152
2016-04-20T11:45:24.079Z,2204
2016-04-20T11:46:24.190Z,1936
2016-04-20T11:47:24.114Z,2540
2016-04-20T11:48:24.134Z,2192
2016-04-20T11:49:24.245Z,2724
2016-04-20T11:50:24.201Z,3068
2016-04-20T11:51:24.204Z,2480
2016-04-20T11:52:24.238Z,2176
2016-04-20T11:53:24.350Z,3108
2016-04-20T11:54:24.291Z,3140
2016-04-20T11:55:24.308Z,2516
2016-04-20T11:56:24.436Z,3300
2016-04-20T11:57:24.344Z,3736
2016-04-20T11:58:24.363Z,3280
2016-04-20T11:59:24.461Z,3372
2016-04-20T12:00:24.432Z,2820
2016-04-20T12:01:24.466Z,2804
2016-04-20T12:02:24.483Z,2344
2016-04-20T12:03:24.579Z,2624
2016-04-20T12:04:24.645Z,3636
2016-04-20T12:05:24.664Z,3324
2016-04-20T12:06:24.666Z,2788
2016-04-20T12:07:24.732Z,2976
2016-04-20T12:08:24.609Z,3172
2016-04-20T12:09:24.643Z,3224
2016-04-20T12:10:24.676Z,3492
2016-04-20T12:11:24.679Z,3724
2016-04-20T12:12:24.715Z,3412
2016-04-20T12:13:24.732Z,2960
2016-04-20T12:14:24.860Z,3224
2016-04-20T12:15:24.784Z,3912
2016-04-20T12:16:24.911Z,3412
2016-04-20T12:17:24.946Z,4120
2016-04-20T12:18:24.949Z,4012
2016-04-20T12:19:24.873Z,4004
2016-04-20T12:20:24.907Z,3480
2016-04-20T12:21:24.925Z,2568
2016-04-20T12:22:24.959Z,2616
2016-04-20T12:23:24.978Z,2848
2016-04-20T12:24:24.996Z,2904
2016-04-20T12:25:25.030Z,2724
2016-04-20T12:26:25.063Z,3128
2016-04-20T12:27:25.347Z,3032
2016-04-20T12:28:25.178Z,2480
2016-04-20T12:29:25.135Z,2508
2016-04-20T12:30:25.137Z,2828
2016-04-20T12:31:25.250Z,3384
2016-04-20T12:32:25.360Z,3672
2016-04-20T12:33:25.223Z,3500
2016-04-20T12:34:25.273Z,3464
2016-04-20T12:35:25.291Z,3132
2016-04-20T12:36:25.497Z,3048
2016-04-20T12:37:25.328Z,3444
2016-04-20T12:38:25.346Z,3112
2016-04-20T12:39:25.380Z,3460
2016-04-20T12:40:25.399Z,3192
2016-04-20T12:41:25.418Z,3176
2016-04-20T12:42:25.435Z,2848
2016-04-20T12:43:25.484Z,3032
2016-04-20T12:44:25.612Z,3220
2016-04-20T12:45:25.521Z,3032
2016-04-20T12:46:25.571Z,3560
2016-04-20T12:47:25.699Z,2692
2016-04-20T12:48:25.623Z,3148
2016-04-20T12:49:25.735Z,2708
2016-04-20T12:50:25.644Z,2060
2016-04-20T12:51:25.756Z,1820
2016-04-20T12:52:25.775Z,1780
2016-04-20T12:53:25.777Z,1812
2016-04-20T12:54:25.748Z,1936
2016-04-20T12:55:25.892Z,2192
2016-04-20T12:56:25.801Z,2612
2016-04-20T12:57:25.819Z,2576
2016-04-20T12:58:25.853Z,2788
2016-04-20T12:59:25.887Z,2580
2016-04-20T13:00:25.905Z,2780
2016-04-20T13:01:25.938Z,2324
2016-04-20T13:02:25.957Z,2308
2016-04-20T13:03:25.977Z,2108
2016-04-20T13:04:25.994Z,1956
2016-04-20T13:05:26.028Z,2128
2016-04-20T13:06:26.046Z,1896
2016-04-20T13:07:26.096Z,1932
2016-04-20T13:08:26.115Z,1824
2016-04-20T13:09:26.258Z,1732
2016-04-20T13:10:26.182Z,2048
2016-04-20T13:11:26.184Z,2140
2016-04-20T13:12:26.218Z,2348
2016-04-20T13:13:26.893Z,2320
2016-04-20T13:14:26.443Z,1648
2016-04-20T13:15:26.290Z,1320
2016-04-20T13:16:26.432Z,1236
2016-04-20T13:17:26.451Z,1424
2016-04-20T13:18:25.657Z,1804
2016-04-20T13:19:26.409Z,2300
2016-04-20T13:20:26.428Z,2288
2016-04-20T13:21:26.446Z,2380
2016-04-20T13:22:26.480Z,3108
2016-04-20T13:23:26.561Z,3024
2016-04-20T13:24:26.578Z,2436
2016-04-20T13:25:26.566Z,2176
2016-04-20T13:26:26.584Z,2052
2016-04-20T13:27:26.603Z,2092
2016-04-20T13:28:26.653Z,2092
2016-04-20T13:29:26.671Z,2032
2016-04-20T13:30:26.689Z,2072
2016-04-20T13:31:26.816Z,2268
2016-04-20T13:32:26.820Z,2492
2016-04-20T13:33:26.869Z,2752
2016-04-20T13:34:26.794Z,3180
2016-04-20T13:35:26.858Z,3124
2016-04-20T13:36:26.861Z,2964
2016-04-20T13:37:26.863Z,3500
2016-04-20T13:38:27.008Z,3376
2016-04-20T13:39:26.994Z,3324
2016-04-20T13:40:26.951Z,3252
2016-04-20T13:41:26.969Z,2752
2016-04-20T13:42:27.002Z,2684
2016-04-20T13:43:27.036Z,2780
2016-04-20T13:44:27.055Z,1976
2016-04-20T13:45:27.073Z,1884
2016-04-20T13:46:27.123Z,2072
2016-04-20T13:47:27.234Z,2416
2016-04-20T13:48:27.238Z,2424
2016-04-20T13:49:27.381Z,2152
2016-04-20T13:50:27.399Z,2080
2016-04-20T13:51:27.401Z,2388
2016-04-20T13:52:27.265Z,2400
2016-04-20T13:53:27.298Z,2100
2016-04-20T13:54:27.316Z,3240
2016-04-20T13:55:27.334Z,3468
2016-04-20T13:56:27.369Z,3864
2016-04-20T13:57:27.402Z,4032
2016-04-20T13:58:27.515Z,4092
2016-04-20T13:59:27.517Z,4288
2016-04-20T14:00:27.520Z,4224
2016-04-20T14:01:27.508Z,3696
2016-04-20T14:02:27.556Z,1936
2016-04-20T14:03:27.700Z,1648
2016-04-20T14:04:27.702Z,2632
2016-04-20T14:05:27.689Z,1460
2016-04-20T14:06:27.707Z,1248
2016-04-20T14:07:27.711Z,1276
2016-04-20T14:08:27.807Z,1568
2016-04-20T14:09:27.747Z,1272
2016-04-20T14:10:27.828Z,1932
2016-04-20T14:11:27.784Z,2412
2016-04-20T14:12:27.802Z,2752
2016-04-20T14:13:27.836Z,1924
2016-04-20T14:14:27.871Z,1444
2016-04-20T14:15:27.888Z,1568
2016-04-20T14:16:27.922Z,1320
2016-04-20T14:17:27.940Z,1264
2016-04-20T14:18:27.974Z,1280
2016-04-20T14:19:28.009Z,1236
2016-04-20T14:20:28.121Z,1208
2016-04-20T14:21:28.045Z,1104
2016-04-20T14:22:28.080Z,1000
2016-04-20T14:23:28.113Z,1076
2016-04-20T14:24:28.132Z,1236
2016-04-20T14:25:28.166Z,1336
2016-04-20T14:26:28.201Z,1172
2016-04-20T14:27:28.218Z,1224
2016-04-20T14:28:28.237Z,1228
2016-04-20T14:29:28.271Z,2832
2016-04-20T14:30:28.290Z,1300
2016-04-20T14:31:28.385Z,1112
2016-04-20T14:32:28.387Z,1028
2016-04-20T14:33:28.390Z,1236
2016-04-20T14:34:28.409Z,1600
2016-04-20T14:35:28.537Z,1040
2016-04-20T14:36:28.617Z,1728
2016-04-20T14:37:28.589Z,1220
2016-04-20T14:38:28.592Z,1244
2016-04-20T14:39:28.595Z,1352
2016-04-20T14:40:28.613Z,1284
2016-04-20T14:41:28.616Z,1212
2016-04-20T14:42:28.619Z,1144
2016-04-20T14:43:28.667Z,2168
2016-04-20T14:44:28.670Z,2912
2016-04-20T14:45:28.736Z,2984
2016-04-20T14:46:28.739Z,3100
2016-04-20T14:47:28.866Z,3484
2016-04-20T14:48:28.791Z,3580
2016-04-20T14:49:28.919Z,3520
2016-04-20T14:50:28.890Z,3536
2016-04-20T14:51:28.924Z,3500
2016-04-20T14:52:29.238Z,3308
2016-04-20T14:53:28.929Z,3036
2016-04-20T14:54:28.947Z,2904
2016-04-20T14:55:28.982Z,2736
2016-04-20T14:56:29.015Z,2676
2016-04-20T14:57:29.034Z,2688
2016-04-20T14:58:29.177Z,2688
2016-04-20T14:59:29.196Z,2744
2016-04-20T15:00:29.338Z,2844
2016-04-20T15:01:29.326Z,2852
2016-04-20T15:02:29.343Z,2804
2016-04-20T15:03:29.346Z,2800
2016-04-20T15:04:29.348Z,2784
2016-04-20T15:05:29.367Z,2992
2016-04-20T15:06:29.276Z,3208
2016-04-20T15:07:29.451Z,3132
2016-04-20T15:08:29.439Z,2928
2016-04-20T15:09:29.457Z,2716
2016-04-20T15:10:29.444Z,2696
2016-04-20T15:11:29.462Z,2820
2016-04-20T15:12:29.464Z,2924
2016-04-20T15:13:29.483Z,2860
2016-04-20T15:14:29.500Z,2916
2016-04-20T15:15:29.519Z,3076
2016-04-20T15:16:29.553Z,3160
2016-04-20T15:17:29.587Z,3260
2016-04-20T15:18:29.699Z,3124
2016-04-20T15:19:29.718Z,3220
2016-04-20T15:20:29.689Z,3300
2016-04-20T15:21:29.832Z,3008
2016-04-20T15:22:29.726Z,2712
2016-04-20T15:23:29.760Z,2400
2016-04-20T15:24:29.777Z,2444
2016-04-20T15:25:29.812Z,2032
2016-04-20T15:26:29.830Z,2224
2016-04-20T15:27:29.864Z,2164
2016-04-20T15:28:29.883Z,2104
2016-04-20T15:29:29.932Z,2272
2016-04-20T15:30:29.935Z,2432
2016-04-20T15:31:29.984Z,2412
2016-04-20T15:32:30.003Z,2324
2016-04-20T15:33:30.037Z,2288
2016-04-20T15:34:30.054Z,2224
2016-04-20T15:35:30.089Z,2216
2016-04-20T15:36:30.471Z,2208
2016-04-20T15:37:30.145Z,2152
2016-04-20T15:38:30.180Z,2232
2016-04-20T15:39:30.197Z,2360
2016-04-20T15:40:30.233Z,2508
2016-04-20T15:41:30.266Z,2588
2016-04-20T15:42:30.284Z,2624
2016-04-20T15:43:30.334Z,2648
2016-04-20T15:44:30.337Z,2760
2016-04-20T15:45:30.371Z,2876
2016-04-20T15:46:30.405Z,2624
2016-04-20T15:47:30.423Z,2380
2016-04-20T15:48:30.458Z,2600
2016-04-20T15:49:30.538Z,2740
2016-04-20T15:50:30.541Z,2632
2016-04-20T15:51:30.668Z,2792
2016-04-20T15:52:30.671Z,2880
2016-04-20T15:53:30.658Z,2880
2016-04-20T15:54:30.629Z,2824
2016-04-20T15:55:30.648Z,2076
2016-04-20T15:56:30.696Z,2728
2016-04-20T15:57:30.715Z,2776
2016-04-20T15:58:30.630Z,2536
2016-04-20T15:59:30.955Z,2244
2016-04-20T16:00:31.000Z,2132
2016-04-20T16:01:30.982Z,1928
2016-04-20T16:02:31.073Z,1748
2016-04-20T16:03:31.114Z,1652
2016-04-20T16:04:31.065Z,1524
2016-04-20T16:06:53.051Z,1456
2016-04-20T16:07:05.426Z,1464
2016-04-20T16:08:05.597Z,1444
2016-04-20T16:09:05.714Z,1404
2016-04-20T16:10:05.677Z,1440
2016-04-20T16:11:05.730Z,1428
2016-04-20T16:12:05.739Z,1424
2016-04-20T16:13:05.777Z,1420
2016-04-20T16:14:05.797Z,1412
2016-04-20T16:15:05.849Z,1400
2016-04-20T16:16:05.885Z,1348
2016-04-20T16:17:05.904Z,1356
2016-04-20T16:18:05.940Z,1340
2016-04-20T16:19:05.960Z,1216
2016-04-20T16:20:06.057Z,1276
2016-04-20T16:21:06.014Z,1280
2016-04-20T16:22:06.048Z,1264
2016-04-20T16:23:06.083Z,1256
2016-04-20T16:24:06.117Z,1240
2016-04-20T16:25:06.135Z,1228
2016-04-20T16:26:06.169Z,1212
2016-04-20T16:27:06.188Z,1196
2016-04-20T16:28:06.222Z,1172
2016-04-20T16:29:06.257Z,1164
2016-04-20T16:30:06.275Z,1152
2016-04-20T16:31:06.309Z,1140
2016-04-20T16:32:06.343Z,1132
2016-04-20T16:33:06.377Z,1104
2016-04-20T16:34:06.395Z,1068
2016-04-20T16:35:06.444Z,1064
2016-04-20T16:36:06.463Z,1060
2016-04-20T16:37:06.496Z,1040
2016-04-20T16:38:06.515Z,1036
2016-04-20T16:39:06.565Z,1020
2016-04-20T16:40:06.583Z,1020
2016-04-20T16:41:06.617Z,1004
2016-04-20T16:42:06.620Z,984
2016-04-20T16:43:06.670Z,964
2016-04-20T16:44:06.703Z,940
2016-04-20T16:45:06.721Z,928
2016-04-20T16:46:06.740Z,924
2016-04-20T16:47:06.773Z,908
2016-04-20T16:48:06.808Z,896
2016-04-20T16:49:06.826Z,888
2016-04-20T16:50:06.860Z,872
2016-04-20T16:51:06.910Z,852
2016-04-20T16:52:06.912Z,836
2016-04-20T16:53:06.947Z,824
2016-04-20T16:54:06.995Z,808
2016-04-20T16:55:06.998Z,796
2016-04-20T16:56:07.048Z,788
2016-04-20T16:57:07.066Z,772
2016-04-20T16:58:07.100Z,760
2016-04-20T16:59:07.134Z,744
2016-04-20T17:00:07.153Z,732
2016-04-20T17:01:07.186Z,716
2016-04-20T17:02:07.221Z,704
2016-04-20T17:03:07.238Z,692
2016-04-20T17:04:07.272Z,684
2016-04-20T17:05:07.291Z,664
2016-04-20T17:06:07.325Z,652
2016-04-20T17:07:07.343Z,636
2016-04-20T17:08:07.377Z,616
2016-04-20T17:09:07.427Z,600
2016-04-20T17:10:07.445Z,576
2016-04-20T17:11:07.463Z,560
2016-04-20T17:12:07.498Z,540
2016-04-20T17:13:07.516Z,512
2016-04-20T17:14:07.565Z,480
2016-04-20T17:15:07.599Z,460
2016-04-20T17:16:07.634Z,440
2016-04-20T17:17:07.637Z,412
2016-04-20T17:18:07.670Z,392
2016-04-20T17:19:07.703Z,368
2016-04-20T17:20:07.737Z,352
2016-04-20T17:21:07.772Z,340
2016-04-20T17:22:07.040Z,328
2016-04-20T17:23:07.809Z,320
2016-04-20T17:24:07.858Z,320
2016-04-20T17:25:07.876Z,312
2016-04-20T17:26:07.895Z,308
2016-04-20T17:27:07.928Z,300
2016-04-20T17:28:07.961Z,288
2016-04-20T17:29:07.980Z,280
2016-04-20T17:30:08.015Z,268
2016-04-20T17:31:08.049Z,260
2016-04-20T17:32:08.082Z,252
2016-04-20T17:33:08.101Z,244
2016-04-20T17:34:08.135Z,236
2016-04-20T17:35:08.169Z,232
2016-04-20T17:36:08.188Z,224
2016-04-20T17:37:08.221Z,216
2016-04-20T17:38:08.239Z,212
2016-04-20T17:39:08.288Z,204
2016-04-20T17:40:08.307Z,196
2016-04-20T17:41:08.341Z,192
2016-04-20T17:42:08.391Z,188
2016-04-20T17:43:08.378Z,180
2016-04-20T17:44:08.459Z,176
2016-04-20T17:45:08.446Z,172
2016-04-20T17:46:08.480Z,164
2016-04-20T17:47:08.513Z,156
2016-04-20T17:48:08.532Z,152
2016-04-20T17:49:08.550Z,144
2016-04-20T17:50:08.585Z,140
2016-04-20T17:51:08.618Z,132
2016-04-20T17:52:08.637Z,128
2016-04-20T17:53:08.373Z,120
2016-04-20T17:54:09.882Z,116
2016-04-20T17:55:08.713Z,108
2016-04-20T17:56:08.731Z,104
2016-04-20T17:57:08.781Z,96
2016-04-20T17:58:08.815Z,96
2016-04-20T17:59:08.833Z,92
2016-04-20T18:00:08.851Z,84
2016-04-20T18:01:08.931Z,80
2016-04-20T18:02:08.919Z,76
2016-04-20T18:03:08.937Z,68
2016-04-20T18:04:09.064Z,64
2016-04-20T18:05:09.006Z,60
2016-04-20T18:06:09.008Z,60
2016-04-20T18:07:09.056Z,56
2016-04-20T18:08:09.089Z,52
2016-04-20T18:09:09.109Z,48
2016-04-20T18:10:09.142Z,48
2016-04-20T18:11:09.191Z,40
2016-04-20T18:12:09.210Z,40
2016-04-20T18:13:09.228Z,36
2016-04-20T18:14:09.246Z,32
2016-04-20T18:15:09.264Z,28
2016-04-20T18:16:09.283Z,28
2016-04-20T18:17:09.212Z,24
2016-04-20T18:18:09.355Z,20
2016-04-20T18:19:09.373Z,20
2016-04-20T18:20:09.391Z,16
2016-04-20T18:21:09.441Z,16
2016-04-20T18:22:09.448Z,16
2016-04-20T18:23:09.483Z,12
2016-04-20T18:24:09.517Z,12
2016-04-20T18:25:09.550Z,8
2016-04-20T18:26:09.599Z,8
2016-04-20T18:27:09.587Z,8
2016-04-20T18:28:09.621Z,8
2016-04-20T18:29:09.639Z,4
2016-04-20T18:30:09.658Z,8
2016-04-20T18:31:09.707Z,4
2016-04-20T18:32:09.741Z,4
2016-04-20T18:33:09.744Z,4
2016-04-20T18:34:09.762Z,0
2016-04-20T18:35:09.780Z,4
2016-04-20T18:36:09.814Z,4
2016-04-20T18:37:09.833Z,0
2016-04-20T18:38:09.882Z,0
2016-04-20T18:39:09.901Z,4
2016-04-20T18:40:09.935Z,0
2016-04-20T18:41:09.953Z,0
2016-04-20T18:42:09.987Z,0
2016-04-20T18:43:10.005Z,0
2016-04-20T18:44:10.039Z,0
2016-04-20T18:45:10.057Z,0
2016-04-20T18:46:10.090Z,0
2016-04-20T18:47:10.110Z,0
2016-04-20T18:48:10.175Z,0
2016-04-20T18:49:10.021Z,0
2016-04-20T18:50:10.195Z,0
2016-04-20T18:51:10.214Z,0
2016-04-20T18:52:10.075Z,0
2016-04-20T18:53:10.267Z,0
2016-04-20T18:54:10.300Z,0
2016-04-20T18:55:10.319Z,0
2016-04-20T18:56:10.353Z,0
2016-04-20T18:57:10.386Z,0
2016-04-20T18:58:10.592Z,0
2016-04-20T18:59:10.611Z,0
2016-04-20T19:00:10.613Z,0
2016-04-20T19:01:09.898Z,0
2016-04-20T19:02:10.681Z,0
2016-04-20T19:03:10.746Z,0
2016-04-20T19:04:10.733Z,0
2016-04-20T19:05:10.767Z,0
2016-04-20T19:06:10.770Z,0
2016-04-20T19:07:10.805Z,0
2016-04-20T19:08:10.868Z,0
2016-04-20T19:09:10.840Z,0
2016-04-20T19:10:10.890Z,0
2016-04-20T19:11:10.893Z,0
2016-04-20T19:12:10.926Z,0
2016-04-20T19:13:10.946Z,0
2016-04-20T19:14:10.979Z,0
2016-04-20T19:15:10.998Z,0
2016-04-20T19:16:11.016Z,0
2016-04-20T19:17:11.049Z,0
2016-04-20T19:18:11.051Z,0
2016-04-20T19:19:11.101Z,0
2016-04-20T19:20:11.120Z,0
2016-04-20T19:21:11.139Z,0
2016-04-20T19:22:11.204Z,0
2016-04-20T19:23:11.190Z,0
2016-04-20T19:24:11.037Z,0
2016-04-20T19:25:11.055Z,0
2016-04-20T19:26:11.089Z,0
2016-04-20T19:27:11.108Z,0
2016-04-20T19:28:11.126Z,0
2016-04-20T19:29:11.160Z,0
2016-04-20T19:30:11.194Z,0
2016-04-20T19:31:11.212Z,0
2016-04-20T19:32:11.230Z,0
2016-04-20T19:33:11.265Z,0
2016-04-20T19:34:11.283Z,0
2016-04-20T19:35:11.301Z,0
2016-04-20T19:36:11.335Z,0
2016-04-20T19:37:11.353Z,0
2016-04-20T19:38:11.371Z,0
2016-04-20T19:39:11.406Z,0
2016-04-20T19:40:11.440Z,0
2016-04-20T19:41:11.474Z,0
2016-04-20T19:42:11.492Z,0
2016-04-20T19:43:11.510Z,0
2016-04-20T19:44:11.544Z,0
2016-04-20T19:45:11.562Z,0
2016-04-20T19:46:11.612Z,0
2016-04-20T19:47:11.599Z,0
2016-04-20T19:48:11.633Z,0
2016-04-20T19:49:11.651Z,0
2016-04-20T19:50:11.670Z,0
2016-04-20T19:51:11.688Z,0
2016-04-20T19:52:11.737Z,0
2016-04-20T19:53:11.740Z,0
2016-04-20T19:54:11.773Z,0
2016-04-20T19:55:11.792Z,0
2016-04-20T19:56:11.811Z,0
2016-04-20T19:57:11.829Z,0
2016-04-20T19:58:11.863Z,0
2016-04-20T19:59:11.881Z,0
2016-04-20T20:00:11.900Z,0
2016-04-20T20:01:11.934Z,0
2016-04-20T20:02:11.967Z,0
2016-04-20T20:03:11.986Z,0
2016-04-20T20:04:12.004Z,0
2016-04-20T20:05:12.039Z,0
2016-04-20T20:06:12.056Z,0
2016-04-20T20:07:12.091Z,0
2016-04-20T20:08:12.108Z,0
2016-04-20T20:09:12.127Z,0
2016-04-20T20:10:12.145Z,0
2016-04-20T20:11:12.163Z,0
2016-04-20T20:12:12.183Z,0
2016-04-20T20:13:12.215Z,0
2016-04-20T20:14:12.234Z,0
2016-04-20T20:15:12.268Z,0
2016-04-20T20:16:12.287Z,0
2016-04-20T20:17:12.305Z,0
2016-04-20T20:18:12.354Z,0
2016-04-20T20:19:12.373Z,0
2016-04-20T20:20:12.391Z,0
2016-04-20T20:21:12.393Z,0
2016-04-20T20:22:12.312Z,0
2016-04-20T20:23:12.433Z,0
2016-04-20T20:24:12.467Z,0
2016-04-20T20:25:11.750Z,0
2016-04-20T20:26:12.519Z,0
2016-04-20T20:27:12.552Z,0
2016-04-20T20:28:12.572Z,0
2016-04-20T20:29:12.589Z,0
2016-04-20T20:30:12.607Z,0
2016-04-20T20:31:12.642Z,0
2016-04-20T20:32:12.644Z,0
2016-04-20T20:33:12.678Z,0
2016-04-20T20:34:12.712Z,0
2016-04-20T20:35:12.730Z,0
2016-04-20T20:36:12.764Z,0
2016-04-20T20:37:12.782Z,0
2016-04-20T20:38:12.817Z,0
2016-04-20T20:39:12.819Z,0
2016-04-20T20:40:12.853Z,0
2016-04-20T20:41:12.887Z,0
2016-04-20T20:42:12.890Z,0
2016-04-20T20:43:12.923Z,0
2016-04-20T20:44:12.942Z,0
2016-04-20T20:45:12.960Z,0
2016-04-20T20:46:12.978Z,0
2016-04-20T20:47:13.013Z,0
2016-04-20T20:48:13.031Z,0
2016-04-20T20:49:13.080Z,0
2016-04-20T20:50:13.068Z,0
2016-04-20T20:51:13.117Z,0
2016-04-20T20:52:13.150Z,0
2016-04-20T20:53:13.138Z,0
2016-04-20T20:54:13.157Z,0
2016-04-20T20:55:13.175Z,0
2016-04-20T20:56:13.193Z,0
2016-04-20T20:57:13.227Z,0
2016-04-20T20:58:13.245Z,0
2016-04-20T20:59:13.263Z,0
2016-04-20T21:00:13.298Z,0
2016-04-20T21:01:13.316Z,0
2016-04-20T21:02:13.335Z,0
2016-04-20T21:03:13.369Z,0
2016-04-20T21:04:13.388Z,0
2016-04-20T21:05:13.406Z,0
2016-04-20T21:06:13.424Z,0
2016-04-20T21:07:13.442Z,0
2016-04-20T21:08:13.461Z,0
2016-04-20T21:09:13.494Z,0
2016-04-20T21:10:13.513Z,0
2016-04-20T21:11:13.532Z,0
2016-04-20T21:12:13.549Z,0
2016-04-20T21:13:13.583Z,0
2016-04-20T21:14:13.602Z,0
2016-04-20T21:15:13.620Z,0
2016-04-20T21:16:13.655Z,0
2016-04-20T21:17:13.672Z,0
2016-04-20T21:18:13.691Z,0
2016-04-20T21:19:13.709Z,0
2016-04-20T21:20:13.727Z,0
2016-04-20T21:21:13.746Z,0
2016-04-20T21:22:13.779Z,0
2016-04-20T21:23:13.063Z,0
2016-04-20T21:24:13.832Z,0
2016-04-20T21:25:13.882Z,0
2016-04-20T21:26:13.868Z,0
2016-04-20T21:27:13.887Z,0
2016-04-20T21:28:13.905Z,0
2016-04-20T21:29:13.924Z,0
2016-04-20T21:30:13.957Z,0
2016-04-20T21:31:13.976Z,0
2016-04-20T21:32:13.994Z,0
2016-04-20T21:33:14.012Z,0
2016-04-20T21:34:14.062Z,0
2016-04-20T21:35:14.065Z,0
2016-04-20T21:36:14.083Z,0
2016-04-20T21:37:14.117Z,0
2016-04-20T21:38:14.151Z,0
2016-04-20T21:39:14.138Z,0
2016-04-20T21:40:14.173Z,0
2016-04-20T21:41:14.190Z,0
2016-04-20T21:42:14.208Z,0
2016-04-20T21:43:14.336Z,0
2016-04-20T21:44:14.261Z,0
2016-04-20T21:45:14.295Z,0
2016-04-20T21:46:14.313Z,0
2016-04-20T21:47:14.316Z,0
2016-04-20T21:48:14.427Z,0
2016-04-20T21:49:14.352Z,0
2016-04-20T21:50:14.386Z,0
2016-04-20T21:51:14.420Z,0
2016-04-20T21:52:14.439Z,0
2016-04-20T21:53:14.457Z,0
2016-04-20T21:54:14.475Z,0
2016-04-20T21:55:14.494Z,0
2016-04-20T21:56:14.543Z,0
2016-04-20T21:57:14.530Z,0
2016-04-20T21:58:14.563Z,0
2016-04-20T21:59:14.582Z,0
2016-04-20T22:00:14.601Z,0
2016-04-20T22:01:14.634Z,0
2016-04-20T22:02:14.747Z,0
2016-04-20T22:03:14.670Z,0
2016-04-20T22:04:14.674Z,0
2016-04-20T22:05:14.708Z,0
2016-04-20T22:06:14.742Z,0
2016-04-20T22:07:14.760Z,0
2016-04-20T22:08:14.778Z,0
2016-04-20T22:09:14.797Z,0
2016-04-20T22:10:14.815Z,0
2016-04-20T22:11:14.848Z,0
2016-04-20T22:12:14.851Z,0
2016-04-20T22:13:14.869Z,0
2016-04-20T22:14:14.889Z,0